Terminal Aerodrome Forecast
Issued by NWS

Home | Current Version | Previous Version | Text Only | Print | Product List | Glossary On
Versions: 1 2 3 4 5 6 7 8 9 10 11 12 13
000
FTUS45 KABQ 202336
TAFLVS
TAF
KLVS 202336Z 2100/2124 28011G19KT P6SM BKN200
     FM210200 31010KT P6SM BKN200
     FM210900 36008KT P6SM SCT200
     FM211700 03015G25KT P6SM SCT200
     FM212300 11011KT P6SM SCT200=

USA.gov is the U.S. government's official web portal to all federal, state and local government web resources and services.